createdAt,value
2018-02-27T00:00:52.027Z,-2.24
2018-02-27T00:03:21.686Z,-2.31
2018-02-27T00:05:50.951Z,-2.31
2018-02-27T00:08:20.231Z,-2.28
2018-02-27T00:10:49.959Z,-2.27
2018-02-27T00:13:19.171Z,-2.30
2018-02-27T00:15:48.870Z,-2.25
2018-02-27T00:18:19.536Z,-2.29
2018-02-27T00:20:48.787Z,-2.30
2018-02-27T00:23:18.126Z,-2.37
2018-02-27T00:25:50.052Z,-2.37
2018-02-27T00:28:19.329Z,-2.40
2018-02-27T00:30:48.563Z,-2.39
2018-02-27T00:33:18.295Z,-2.44
2018-02-27T00:35:48.358Z,-2.41
2018-02-27T00:38:18.624Z,-2.48
2018-02-27T00:40:48.227Z,-2.51
2018-02-27T00:43:17.458Z,-2.55
2018-02-27T00:45:47.324Z,-2.53
2018-02-27T00:48:17.015Z,-2.49
2018-02-27T00:50:46.259Z,-2.54
2018-02-27T00:53:15.561Z,-2.65
2018-02-27T00:55:45.415Z,-2.70
2018-02-27T00:58:14.780Z,-2.72
2018-02-27T01:00:44.131Z,-2.68
2018-02-27T01:03:13.808Z,-2.69
2018-02-27T01:05:43.029Z,-2.67
2018-02-27T01:11:12.390Z,-2.72
2018-02-27T01:13:41.590Z,-2.67
2018-02-27T01:16:10.830Z,-2.64
2018-02-27T01:18:40.575Z,-2.64
2018-02-27T01:21:09.821Z,-2.63
2018-02-27T01:23:39.120Z,-2.62
2018-02-27T01:26:08.779Z,-2.65
2018-02-27T01:28:38.100Z,-2.67
2018-02-27T01:31:07.328Z,-2.66
2018-02-27T01:33:37.125Z,-2.64
2018-02-27T01:36:06.360Z,-2.72
2018-02-27T01:38:35.673Z,-2.68
2018-02-27T01:41:05.316Z,-2.68
2018-02-27T01:43:34.535Z,-2.73
2018-02-27T01:46:04.430Z,-2.75
2018-02-27T01:48:34.193Z,-2.70
2018-02-27T01:51:12.079Z,-2.78
2018-02-27T01:53:41.327Z,-2.84
2018-02-27T01:56:10.986Z,-2.93
2018-02-27T01:58:40.274Z,-2.93
2018-02-27T02:01:09.500Z,-2.90
2018-02-27T02:03:40.173Z,-2.87
2018-02-27T02:06:09.454Z,-2.86
2018-02-27T02:08:38.803Z,-2.89
2018-02-27T02:11:08.053Z,-3.01
2018-02-27T02:13:37.422Z,-3.02
2018-02-27T02:16:09.257Z,-3.12
2018-02-27T02:18:38.644Z,-3.21
2018-02-27T02:21:07.875Z,-3.28
2018-02-27T02:23:37.623Z,-3.23
2018-02-27T02:26:06.888Z,-3.18
2018-02-27T02:28:36.268Z,-3.16
2018-02-27T02:31:05.881Z,-3.20
2018-02-27T02:33:35.208Z,-3.26
2018-02-27T02:36:05.021Z,-3.27
2018-02-27T02:38:34.350Z,-3.33
2018-02-27T02:41:03.619Z,-3.37
2018-02-27T02:43:33.426Z,-3.41
2018-02-27T02:46:04.459Z,-3.41
2018-02-27T02:48:33.703Z,-3.34
2018-02-27T02:51:03.521Z,-3.37
2018-02-27T02:53:32.734Z,-3.31
2018-02-27T02:56:02.651Z,-3.33
2018-02-27T02:58:32.313Z,-3.29
2018-02-27T03:01:01.532Z,-3.27
2018-02-27T03:03:30.759Z,-3.40
2018-02-27T03:06:00.463Z,-3.48
2018-02-27T03:08:29.794Z,-3.57
2018-02-27T03:10:59.074Z,-3.48
2018-02-27T03:13:28.710Z,-3.51
2018-02-27T03:15:57.982Z,-3.46
2018-02-27T03:18:27.215Z,-3.43
2018-02-27T03:20:57.944Z,-3.40
2018-02-27T03:23:27.194Z,-3.39
2018-02-27T03:25:56.394Z,-3.42
2018-02-27T03:28:25.954Z,-3.50
2018-02-27T03:30:55.173Z,-3.42
2018-02-27T03:33:24.386Z,-3.37
2018-02-27T03:35:54.024Z,-3.39
2018-02-27T03:38:23.265Z,-3.41
2018-02-27T03:40:52.466Z,-3.38
2018-02-27T03:43:23.159Z,-3.32
2018-02-27T03:45:52.390Z,-3.31
2018-02-27T03:48:21.651Z,-3.26
2018-02-27T03:50:51.421Z,-3.28
2018-02-27T03:53:20.756Z,-3.22
2018-02-27T03:55:50.031Z,-3.14
2018-02-27T04:00:59.216Z,-3.15
2018-02-27T04:03:28.507Z,-3.14
2018-02-27T04:05:58.415Z,-3.15
2018-02-27T04:08:27.732Z,-3.12
2018-02-27T04:10:57.012Z,-3.12
2018-02-27T04:13:26.687Z,-3.17
2018-02-27T04:15:55.964Z,-3.16
2018-02-27T04:18:25.489Z,-3.12
2018-02-27T04:20:55.114Z,-3.07
2018-02-27T04:23:24.363Z,-3.05
2018-02-27T04:25:53.624Z,-3.07
2018-02-27T04:28:23.227Z,-3.11
2018-02-27T04:30:52.450Z,-3.35
2018-02-27T04:33:21.734Z,-3.24
2018-02-27T04:35:50.960Z,-3.25
2018-02-27T04:38:20.198Z,-3.24
2018-02-27T04:40:49.748Z,-3.24
2018-02-27T04:43:19.032Z,-3.22
2018-02-27T04:45:48.238Z,-3.30
2018-02-27T04:48:17.848Z,-3.22
2018-02-27T04:50:48.085Z,-3.25
2018-02-27T04:53:17.306Z,-3.27
2018-02-27T04:55:47.114Z,-3.31
2018-02-27T04:58:16.458Z,-3.29
2018-02-27T05:00:45.687Z,-3.28
2018-02-27T05:03:15.381Z,-3.29
2018-02-27T05:05:44.599Z,-3.29
2018-02-27T05:08:13.925Z,-3.26
2018-02-27T05:10:43.512Z,-3.25
2018-02-27T05:13:12.705Z,-3.27
2018-02-27T05:15:41.943Z,-3.25
2018-02-27T05:18:11.644Z,-3.18
2018-02-27T05:20:40.901Z,-3.09
2018-02-27T05:23:10.121Z,-3.03
2018-02-27T05:25:39.862Z,-3.00
2018-02-27T05:28:09.189Z,-2.98
2018-02-27T05:30:39.454Z,-3.01
2018-02-27T05:33:09.055Z,-3.04
2018-02-27T05:35:38.451Z,-3.08
2018-02-27T05:38:07.835Z,-3.21
2018-02-27T05:40:37.672Z,-3.20
2018-02-27T05:43:07.001Z,-3.25
2018-02-27T05:45:36.778Z,-3.26
2018-02-27T05:48:06.915Z,-3.27
2018-02-27T05:50:36.295Z,-3.24
2018-02-27T05:53:05.536Z,-3.39
2018-02-27T05:55:35.063Z,-3.29
2018-02-27T05:58:05.263Z,-3.34
2018-02-27T06:00:34.507Z,-3.33
2018-02-27T06:03:05.201Z,-3.32
2018-02-27T06:05:34.447Z,-3.33
2018-02-27T06:08:04.407Z,-3.36
2018-02-27T06:10:34.043Z,-3.33
2018-02-27T06:13:03.571Z,-3.31
2018-02-27T06:15:32.861Z,-3.32
2018-02-27T06:18:03.147Z,-3.33
2018-02-27T06:20:32.412Z,-3.40
2018-02-27T06:23:02.084Z,-3.43
2018-02-27T06:25:31.908Z,-3.45
2018-02-27T06:28:03.118Z,-3.45
2018-02-27T06:30:32.365Z,-3.49
2018-02-27T06:33:03.098Z,-3.54
2018-02-27T06:35:32.410Z,-3.54
2018-02-27T06:38:03.051Z,-3.55
2018-02-27T06:40:32.679Z,-3.53
2018-02-27T06:43:02.128Z,-3.52
2018-02-27T06:45:31.346Z,-3.53
2018-02-27T06:48:00.583Z,-3.46
2018-02-27T06:50:30.005Z,-3.40
2018-02-27T06:52:59.627Z,-3.39
2018-02-27T06:55:28.890Z,-3.37
2018-02-27T06:57:58.111Z,-3.34
2018-02-27T07:00:27.406Z,-3.27
2018-02-27T07:02:56.683Z,-3.19
2018-02-27T07:05:26.339Z,-3.20
2018-02-27T07:07:55.563Z,-3.13
2018-02-27T07:10:24.846Z,-3.14
2018-02-27T07:12:55.022Z,-3.09
2018-02-27T07:15:24.252Z,-3.06
2018-02-27T07:17:53.483Z,-3.06
2018-02-27T07:20:23.084Z,-3.08
2018-02-27T07:22:52.376Z,-3.01
2018-02-27T07:25:21.607Z,-3.00
2018-02-27T07:27:51.265Z,-2.93
2018-02-27T07:30:20.514Z,-2.97
2018-02-27T07:32:49.753Z,-2.87
2018-02-27T07:35:19.505Z,-2.93
2018-02-27T07:37:49.052Z,-2.87
2018-02-27T07:40:18.286Z,-2.86
2018-02-27T07:42:48.156Z,-2.71
2018-02-27T07:45:17.431Z,-2.68
2018-02-27T07:47:46.863Z,-2.77
2018-02-27T07:50:16.586Z,-2.64
2018-02-27T07:52:45.883Z,-2.60
2018-02-27T07:55:15.131Z,-2.52
2018-02-27T07:57:44.861Z,-2.36
2018-02-27T08:00:14.117Z,-2.11
2018-02-27T08:02:43.653Z,-1.46
2018-02-27T08:05:13.462Z,-0.97
2018-02-27T08:07:42.708Z,-0.55
2018-02-27T08:10:11.957Z,-0.73
2018-02-27T08:12:41.203Z,-0.35
2018-02-27T08:15:10.502Z,-0.10
2018-02-27T08:17:40.579Z,0.14
2018-02-27T08:20:10.470Z,0.07
2018-02-27T08:22:39.912Z,0.51
2018-02-27T08:25:09.847Z,0.21
2018-02-27T08:27:39.298Z,0.29
2018-02-27T08:30:09.370Z,0.00
2018-02-27T08:32:44.493Z,0.10
2018-02-27T08:35:17.065Z,0.14
2018-02-27T08:37:46.397Z,0.37
2018-02-27T08:40:15.978Z,0.15
2018-02-27T08:42:45.459Z,0.07
2018-02-27T08:45:14.698Z,0.29
2018-02-27T08:47:45.447Z,0.23
2018-02-27T08:50:14.816Z,-0.16
2018-02-27T08:52:44.113Z,0.06
2018-02-27T08:55:13.883Z,0.22
2018-02-27T08:57:43.596Z,0.28
2018-02-27T09:00:12.858Z,0.09
2018-02-27T09:02:42.436Z,-0.24
2018-02-27T09:05:11.727Z,-0.63
2018-02-27T09:07:40.958Z,-0.45
2018-02-27T09:10:10.525Z,-0.17
2018-02-27T09:12:39.806Z,-0.44
2018-02-27T09:15:09.051Z,-0.33
2018-02-27T09:17:38.990Z,0.10
2018-02-27T09:20:08.240Z,0.17
2018-02-27T09:22:37.468Z,0.45
2018-02-27T09:25:06.736Z,0.67
2018-02-27T09:27:36.209Z,0.97
2018-02-27T09:30:06.797Z,0.75
2018-02-27T09:32:36.213Z,1.05
2018-02-27T09:35:05.502Z,0.90
2018-02-27T09:37:35.095Z,0.98
2018-02-27T09:40:05.304Z,0.38
2018-02-27T09:42:34.561Z,0.30
2018-02-27T09:45:04.377Z,0.08
2018-02-27T09:47:33.655Z,0.21
2018-02-27T09:50:03.687Z,0.30
2018-02-27T09:52:34.258Z,0.74
2018-02-27T09:55:03.913Z,1.13
2018-02-27T09:57:33.158Z,1.26
2018-02-27T10:00:04.706Z,1.31
2018-02-27T10:02:33.934Z,1.72
2018-02-27T10:05:03.380Z,1.89
2018-02-27T10:07:32.632Z,2.08
2018-02-27T10:10:02.883Z,2.11
2018-02-27T10:12:32.148Z,2.46
2018-02-27T10:15:01.420Z,2.57
2018-02-27T10:17:31.038Z,2.94
2018-02-27T10:20:00.244Z,3.02
2018-02-27T10:22:29.476Z,2.82
2018-02-27T10:24:58.698Z,2.29
2018-02-27T10:27:28.023Z,2.31
2018-02-27T10:29:57.585Z,2.23
2018-02-27T10:32:26.837Z,1.95
2018-02-27T10:34:56.303Z,1.94
2018-02-27T10:37:25.536Z,1.84
2018-02-27T10:39:54.831Z,1.57
2018-02-27T10:42:24.384Z,1.62
2018-02-27T10:44:53.674Z,1.91
2018-02-27T10:47:22.958Z,1.78
2018-02-27T10:49:52.215Z,1.70
2018-02-27T10:52:21.437Z,1.76
2018-02-27T10:54:51.563Z,2.12
2018-02-27T10:57:20.795Z,2.48
2018-02-27T10:59:50.006Z,2.80
2018-02-27T11:02:19.511Z,2.67
2018-02-27T11:04:48.807Z,3.29
2018-02-27T11:07:18.114Z,3.12
2018-02-27T11:09:49.771Z,3.22
2018-02-27T11:12:19.017Z,3.11
2018-02-27T11:14:48.274Z,3.39
2018-02-27T11:17:17.825Z,3.63
2018-02-27T11:19:47.688Z,3.86
2018-02-27T11:22:17.026Z,3.85
2018-02-27T11:24:46.763Z,3.90
2018-02-27T11:27:16.064Z,3.89
2018-02-27T11:29:45.323Z,3.52
2018-02-27T11:32:14.910Z,3.79
2018-02-27T11:34:44.538Z,4.17
2018-02-27T11:37:13.756Z,4.20
2018-02-27T11:39:43.336Z,4.28
2018-02-27T11:42:12.596Z,4.17
2018-02-27T11:44:41.947Z,3.78
2018-02-27T11:47:11.705Z,4.19
2018-02-27T11:49:40.966Z,4.29
2018-02-27T11:52:10.206Z,4.55
2018-02-27T11:54:39.959Z,4.65
2018-02-27T11:57:09.189Z,4.59
2018-02-27T11:59:38.592Z,4.54
2018-02-27T12:02:07.825Z,4.69
2018-02-27T12:04:37.134Z,4.68
2018-02-27T12:07:06.892Z,5.02
2018-02-27T12:09:36.205Z,4.93
2018-02-27T12:12:06.122Z,5.01
2018-02-27T12:14:35.684Z,4.72
2018-02-27T12:17:06.502Z,4.68
2018-02-27T12:19:35.978Z,4.38
2018-02-27T12:22:06.664Z,4.79
2018-02-27T12:24:36.000Z,4.70
2018-02-27T12:27:05.330Z,5.02
2018-02-27T12:29:36.008Z,5.40
2018-02-27T12:32:06.705Z,4.99
2018-02-27T12:34:36.026Z,5.77
2018-02-27T12:37:05.998Z,5.57
2018-02-27T12:39:35.295Z,5.72
2018-02-27T12:42:05.101Z,5.66
2018-02-27T12:44:34.837Z,5.90
2018-02-27T12:47:04.384Z,6.01
2018-02-27T12:49:33.607Z,6.15
2018-02-27T12:52:04.454Z,6.29
2018-02-27T12:54:33.819Z,5.96
2018-02-27T12:57:03.239Z,6.29
2018-02-27T12:59:33.023Z,6.19
2018-02-27T13:02:03.729Z,6.27
2018-02-27T13:04:32.998Z,6.97
2018-02-27T13:07:02.805Z,6.90
2018-02-27T13:09:32.074Z,7.08
2018-02-27T13:12:01.483Z,7.10
2018-02-27T13:14:30.771Z,7.22
2018-02-27T13:17:00.047Z,7.24
2018-02-27T13:19:29.887Z,7.32
2018-02-27T13:21:59.302Z,8.11
2018-02-27T13:24:28.765Z,8.26
2018-02-27T13:26:58.388Z,8.57
2018-02-27T13:29:27.792Z,8.04
2018-02-27T13:31:57.075Z,7.84
2018-02-27T13:34:26.778Z,8.27
2018-02-27T13:36:56.068Z,7.81
2018-02-27T13:39:25.405Z,7.71
2018-02-27T13:41:55.000Z,7.44
2018-02-27T13:44:24.271Z,7.19
2018-02-27T13:46:53.662Z,7.39
2018-02-27T13:49:25.041Z,7.00
2018-02-27T13:51:53.844Z,7.30
2018-02-27T13:54:23.487Z,7.18
2018-02-27T13:56:54.933Z,7.43
2018-02-27T13:59:24.473Z,7.07
2018-02-27T14:01:54.730Z,6.29
2018-02-27T14:04:24.483Z,6.36
2018-02-27T14:06:53.738Z,6.15
2018-02-27T14:09:23.230Z,5.80
2018-02-27T14:11:53.022Z,5.74
2018-02-27T14:14:22.335Z,5.87
2018-02-27T14:16:51.602Z,6.15
2018-02-27T14:19:21.259Z,5.67
2018-02-27T14:21:50.510Z,5.74
2018-02-27T14:24:19.935Z,5.51
2018-02-27T14:26:49.280Z,5.68
2018-02-27T14:29:18.559Z,5.66
2018-02-27T14:31:48.120Z,5.77
2018-02-27T14:34:17.347Z,6.12
2018-02-27T14:36:46.595Z,5.56
2018-02-27T14:39:15.836Z,5.88
2018-02-27T14:41:45.073Z,6.02
2018-02-27T14:44:14.654Z,6.04
2018-02-27T14:46:43.924Z,6.13
2018-02-27T14:49:13.177Z,5.99
2018-02-27T14:51:43.136Z,6.05
2018-02-27T14:54:12.393Z,5.63
2018-02-27T14:59:19.258Z,4.75
2018-02-27T15:01:48.775Z,4.60
2018-02-27T15:04:18.501Z,4.20
2018-02-27T15:06:47.810Z,3.99
2018-02-27T15:09:17.026Z,3.96
2018-02-27T15:11:46.552Z,3.68
2018-02-27T15:14:15.789Z,3.21
2018-02-27T15:16:45.066Z,3.12
2018-02-27T15:19:14.577Z,2.73
2018-02-27T15:21:43.864Z,2.68
2018-02-27T15:24:13.123Z,2.69
2018-02-27T15:26:42.803Z,2.57
2018-02-27T15:29:12.102Z,2.62
2018-02-27T15:31:41.348Z,2.53
2018-02-27T15:34:10.625Z,2.54
2018-02-27T15:36:40.137Z,2.35
2018-02-27T15:39:09.697Z,2.49
2018-02-27T15:41:39.079Z,2.81
2018-02-27T15:44:08.379Z,3.00
2018-02-27T15:46:38.176Z,3.10
2018-02-27T15:49:08.079Z,3.13
2018-02-27T15:51:37.523Z,3.48
2018-02-27T15:54:07.107Z,3.65
2018-02-27T15:56:36.464Z,3.63
2018-02-27T15:59:05.783Z,4.03
2018-02-27T16:01:35.463Z,3.97
2018-02-27T16:04:06.270Z,3.70
2018-02-27T16:06:35.554Z,3.35
2018-02-27T16:09:06.229Z,3.36
2018-02-27T16:11:35.719Z,3.33
2018-02-27T16:14:05.669Z,3.16
2018-02-27T16:16:35.261Z,3.11
2018-02-27T16:19:04.691Z,3.15
2018-02-27T16:21:34.033Z,2.96
2018-02-27T16:24:05.088Z,2.76
2018-02-27T16:26:34.305Z,2.47
2018-02-27T16:29:03.799Z,2.02
2018-02-27T16:31:33.423Z,1.82
2018-02-27T16:34:04.994Z,1.60
2018-02-27T16:36:34.258Z,1.34
2018-02-27T16:39:04.263Z,1.35
2018-02-27T16:41:33.494Z,1.12
2018-02-27T16:44:04.886Z,1.18
2018-02-27T16:46:34.154Z,1.05
2018-02-27T16:49:03.737Z,1.16
2018-02-27T16:51:33.277Z,0.80
2018-02-27T16:54:03.388Z,0.85
2018-02-27T16:56:32.713Z,0.83
2018-02-27T16:59:02.643Z,0.58
2018-02-27T17:01:31.914Z,0.66
2018-02-27T17:04:03.361Z,0.68
2018-02-27T17:06:32.895Z,0.51
2018-02-27T17:09:02.362Z,0.45
2018-02-27T17:11:31.605Z,0.35
2018-02-27T17:14:01.239Z,0.34
2018-02-27T17:16:30.472Z,0.20
2018-02-27T17:19:00.168Z,0.20
2018-02-27T17:21:29.764Z,0.16
2018-02-27T17:23:59.031Z,0.16
2018-02-27T17:26:28.287Z,0.19
2018-02-27T17:28:57.823Z,0.15
2018-02-27T17:31:27.110Z,0.17
2018-02-27T17:33:56.387Z,0.22
2018-02-27T17:36:25.946Z,0.23
2018-02-27T17:38:55.217Z,0.27
2018-02-27T17:41:24.441Z,0.13
2018-02-27T17:43:53.970Z,0.07
2018-02-27T17:46:23.194Z,0.07
2018-02-27T17:48:52.414Z,0.02
2018-02-27T17:51:21.994Z,0.00
2018-02-27T17:53:51.230Z,-0.01
2018-02-27T17:56:20.489Z,-0.11
2018-02-27T17:58:49.725Z,-0.14
2018-02-27T18:01:18.997Z,-0.12
2018-02-27T18:03:48.531Z,-0.10
2018-02-27T18:06:17.936Z,-0.10
2018-02-27T18:08:47.278Z,-0.11
2018-02-27T18:11:16.546Z,-0.07
2018-02-27T18:13:45.808Z,-0.02
2018-02-27T18:16:15.384Z,-0.04
2018-02-27T18:18:44.774Z,-0.02
2018-02-27T18:21:14.050Z,-0.05
2018-02-27T18:23:44.955Z,-0.13
2018-02-27T18:26:14.340Z,-0.08
2018-02-27T18:28:44.216Z,-0.09
2018-02-27T18:31:14.065Z,-0.11
2018-02-27T18:33:43.335Z,-0.09
2018-02-27T18:36:12.896Z,-0.15
2018-02-27T18:38:42.436Z,-0.13
2018-02-27T18:41:11.750Z,-0.14
2018-02-27T18:43:41.171Z,-0.19
2018-02-27T18:46:10.514Z,-0.20
2018-02-27T18:48:40.420Z,-0.27
2018-02-27T18:51:09.706Z,-0.28
2018-02-27T18:53:39.534Z,-0.23
2018-02-27T18:56:08.796Z,-0.26
2018-02-27T18:58:38.106Z,-0.27
2018-02-27T19:01:07.690Z,-0.34
2018-02-27T19:03:36.913Z,-0.40
2018-02-27T19:06:06.179Z,-0.45
2018-02-27T19:08:35.847Z,-0.39
2018-02-27T19:11:05.605Z,-0.36
2018-02-27T19:13:34.890Z,-0.35
2018-02-27T19:16:06.142Z,-0.42
2018-02-27T19:18:35.369Z,-0.43
2018-02-27T19:21:04.675Z,-0.40
2018-02-27T19:23:33.937Z,-0.40
2018-02-27T19:26:04.157Z,-0.45
2018-02-27T19:28:33.859Z,-0.52
2018-02-27T19:31:03.270Z,-0.58
2018-02-27T19:33:32.724Z,-0.63
2018-02-27T19:36:03.855Z,-0.65
2018-02-27T19:38:34.621Z,-0.67
2018-02-27T19:41:34.439Z,-0.70
2018-02-27T19:44:04.659Z,-0.73
2018-02-27T19:46:33.893Z,-0.76
2018-02-27T19:49:03.586Z,-0.79
2018-02-27T19:51:32.969Z,-0.77
2018-02-27T19:54:04.212Z,-0.75
2018-02-27T19:56:33.451Z,-0.70
2018-02-27T19:59:03.839Z,-0.68
2018-02-27T20:01:33.067Z,-0.65
2018-02-27T20:04:03.974Z,-0.69
2018-02-27T20:06:33.233Z,-0.66
2018-02-27T20:09:02.562Z,-0.69
2018-02-27T20:11:31.885Z,-0.74
2018-02-27T20:14:01.318Z,-0.73
2018-02-27T20:16:31.107Z,-0.74
2018-02-27T20:19:00.544Z,-0.83
2018-02-27T20:21:29.832Z,-0.83
2018-02-27T20:24:32.050Z,-0.97
2018-02-27T20:27:01.462Z,-0.95
2018-02-27T20:29:31.173Z,-0.97
2018-02-27T20:32:00.562Z,-1.10
2018-02-27T20:34:33.589Z,-1.07
2018-02-27T20:37:03.213Z,-1.15
2018-02-27T20:39:32.512Z,-1.16
2018-02-27T20:42:03.538Z,-1.15
2018-02-27T20:44:33.331Z,-1.21
2018-02-27T20:47:02.618Z,-1.32
2018-02-27T20:49:31.847Z,-1.30
2018-02-27T20:52:03.455Z,-1.31
2018-02-27T20:54:33.785Z,-1.32
2018-02-27T20:57:03.500Z,-1.38
2018-02-27T20:59:32.695Z,-1.39
2018-02-27T21:02:03.362Z,-1.47
2018-02-27T21:04:32.951Z,-1.41
2018-02-27T21:07:02.422Z,-1.41
2018-02-27T21:09:31.720Z,-1.44
2018-02-27T21:12:01.391Z,-1.50
2018-02-27T21:14:30.924Z,-1.55
2018-02-27T21:17:00.634Z,-1.56
2018-02-27T21:19:29.945Z,-1.63
2018-02-27T21:21:59.489Z,-1.71
2018-02-27T21:24:29.273Z,-1.73
2018-02-27T21:26:58.566Z,-1.83
2018-02-27T21:29:27.833Z,-1.77
2018-02-27T21:31:57.533Z,-1.79
2018-02-27T21:34:26.867Z,-1.82
2018-02-27T21:36:56.536Z,-1.80
2018-02-27T21:39:26.251Z,-1.88
2018-02-27T21:41:55.557Z,-1.87
2018-02-27T21:44:24.789Z,-1.89
2018-02-27T21:46:54.403Z,-1.87
2018-02-27T21:49:23.651Z,-1.84
2018-02-27T21:51:52.892Z,-1.89
2018-02-27T21:54:22.476Z,-1.87
2018-02-27T21:56:51.719Z,-1.85
2018-02-27T21:59:20.962Z,-1.85
2018-02-27T22:01:50.790Z,-1.89
2018-02-27T22:04:20.138Z,-1.86
2018-02-27T22:06:49.493Z,-1.88
2018-02-27T22:09:19.386Z,-1.92
2018-02-27T22:11:49.016Z,-1.96
2018-02-27T22:14:18.233Z,-1.97
2018-02-27T22:16:47.973Z,-1.97
2018-02-27T22:19:17.229Z,-2.05
2018-02-27T22:21:48.638Z,-2.11
2018-02-27T22:24:19.854Z,-2.13
2018-02-27T22:26:51.848Z,-2.13
2018-02-27T22:29:23.492Z,-2.23
2018-02-27T22:31:55.322Z,-2.21
2018-02-27T22:34:26.880Z,-2.21
2018-02-27T22:36:58.500Z,-2.21
2018-02-27T22:39:29.757Z,-2.21
2018-02-27T22:42:01.227Z,-2.26
2018-02-27T22:44:31.848Z,-2.31
2018-02-27T22:47:03.333Z,-2.27
2018-02-27T22:49:33.344Z,-2.30
2018-02-27T22:52:03.118Z,-2.30
2018-02-27T22:54:32.575Z,-2.29
2018-02-27T22:57:02.663Z,-2.34
2018-02-27T22:59:32.209Z,-2.32
2018-02-27T23:02:02.163Z,-2.30
2018-02-27T23:04:31.880Z,-2.27
2018-02-27T23:07:01.234Z,-2.28
2018-02-27T23:09:30.606Z,-2.32
2018-02-27T23:11:59.813Z,-2.28
2018-02-27T23:14:29.076Z,-2.28
2018-02-27T23:16:58.784Z,-2.27
2018-02-27T23:19:28.096Z,-2.32
2018-02-27T23:21:57.354Z,-2.30
2018-02-27T23:24:29.728Z,-2.28
2018-02-27T23:27:03.095Z,-2.34
2018-02-27T23:29:34.330Z,-2.41
2018-02-27T23:32:08.929Z,-2.44
2018-02-27T23:35:06.696Z,-2.37
2018-02-27T23:37:36.003Z,-2.40
2018-02-27T23:40:05.762Z,-2.42
2018-02-27T23:42:35.415Z,-2.48
2018-02-27T23:45:04.748Z,-2.50
2018-02-27T23:47:34.004Z,-2.54
2018-02-27T23:50:04.657Z,-2.64
2018-02-27T23:52:33.905Z,-2.62
2018-02-27T23:55:03.348Z,-2.67
2018-02-27T23:57:33.015Z,-2.81
